createdAt,value
2023-05-14T00:01:39.150Z,3.47
2023-05-14T00:04:26.037Z,3.30
2023-05-14T00:07:12.949Z,3.85
2023-05-14T00:10:00.020Z,3.67
2023-05-14T00:12:46.893Z,3.58
2023-05-14T00:15:34.507Z,3.65
2023-05-14T00:18:21.504Z,3.50
2023-05-14T00:21:08.351Z,3.60
2023-05-14T00:23:55.244Z,3.75
2023-05-14T00:26:42.071Z,3.55
2023-05-14T00:29:28.850Z,3.80
2023-05-14T00:32:15.766Z,3.67
2023-05-14T00:35:04.337Z,4.13
2023-05-14T00:37:51.210Z,4.38
2023-05-14T00:40:38.108Z,3.47
2023-05-14T00:43:25.941Z,3.58
2023-05-14T00:46:12.881Z,3.95
2023-05-14T00:48:59.842Z,4.03
2023-05-14T00:51:47.100Z,3.60
2023-05-14T00:54:34.857Z,3.63
2023-05-14T00:57:22.071Z,4.00
2023-05-14T01:00:09.384Z,3.60
2023-05-14T01:02:56.319Z,4.07
2023-05-14T01:05:46.326Z,4.03
2023-05-14T01:09:10.339Z,4.25
2023-05-14T01:12:13.208Z,3.80
2023-05-14T01:15:12.533Z,3.78
2023-05-14T01:18:03.957Z,4.30
2023-05-14T01:20:52.626Z,4.00
2023-05-14T01:23:39.478Z,4.15
2023-05-14T01:26:26.284Z,3.72
2023-05-14T01:29:23.322Z,3.85
2023-05-14T01:32:11.024Z,3.88
2023-05-14T01:34:58.717Z,4.18
2023-05-14T01:37:45.985Z,4.30
2023-05-14T01:40:34.024Z,4.43
2023-05-14T01:43:21.058Z,4.40
2023-05-14T01:46:08.010Z,3.78
2023-05-14T01:48:54.942Z,4.10
2023-05-14T01:51:41.739Z,4.47
2023-05-14T01:54:28.565Z,4.20
2023-05-14T01:57:15.537Z,4.10
2023-05-14T02:00:02.368Z,4.25
2023-05-14T02:02:49.197Z,4.10
2023-05-14T02:05:36.019Z,4.25
2023-05-14T02:08:22.868Z,4.20
2023-05-14T02:11:09.859Z,4.30
2023-05-14T02:13:56.701Z,4.38
2023-05-14T02:16:43.570Z,4.40
2023-05-14T02:19:30.707Z,3.90
2023-05-14T02:22:17.602Z,4.28
2023-05-14T02:25:04.686Z,4.20
2023-05-14T02:27:51.496Z,4.32
2023-05-14T02:30:38.416Z,4.30
2023-05-14T02:33:25.305Z,4.20
2023-05-14T02:36:12.197Z,4.18
2023-05-14T02:38:59.611Z,4.45
2023-05-14T02:41:46.424Z,4.05
2023-05-14T02:44:33.319Z,4.05
2023-05-14T02:47:20.241Z,4.10
2023-05-14T02:50:07.690Z,3.92
2023-05-14T02:52:54.551Z,4.25
2023-05-14T02:55:41.404Z,4.57
2023-05-14T02:58:28.621Z,4.22
2023-05-14T03:01:15.567Z,4.15
2023-05-14T03:04:03.027Z,4.30
2023-05-14T03:06:49.889Z,4.00
2023-05-14T03:09:38.324Z,4.25
2023-05-14T03:12:25.564Z,4.22
2023-05-14T03:15:12.405Z,4.18
2023-05-14T03:17:59.329Z,4.13
2023-05-14T03:20:46.225Z,4.38
2023-05-14T03:23:34.998Z,4.50
2023-05-14T03:26:22.004Z,4.20
2023-05-14T03:29:10.700Z,4.60
2023-05-14T03:31:57.568Z,4.45
2023-05-14T03:34:44.849Z,4.78
2023-05-14T03:37:31.672Z,4.50
2023-05-14T03:40:18.552Z,4.55
2023-05-14T03:43:05.418Z,4.93
2023-05-14T03:45:52.797Z,4.53
2023-05-14T03:48:39.791Z,4.38
2023-05-14T03:51:26.614Z,4.35
2023-05-14T03:54:13.388Z,4.90
2023-05-14T03:57:00.242Z,4.15
2023-05-14T03:59:47.029Z,4.38
2023-05-14T04:02:33.925Z,4.55
2023-05-14T04:05:20.845Z,4.53
2023-05-14T04:08:07.637Z,4.68
2023-05-14T04:10:54.609Z,4.20
2023-05-14T04:13:41.414Z,4.47
2023-05-14T04:16:28.431Z,4.70
2023-05-14T04:19:15.853Z,4.20
2023-05-14T04:22:02.745Z,4.75
2023-05-14T04:24:49.578Z,4.50
2023-05-14T04:27:36.393Z,4.30
2023-05-14T04:30:23.368Z,4.70
2023-05-14T04:33:10.380Z,4.50
2023-05-14T04:35:57.269Z,4.93
2023-05-14T04:38:46.564Z,4.75
2023-05-14T04:41:33.357Z,4.80
2023-05-14T04:44:20.150Z,4.70
2023-05-14T04:47:07.733Z,5.10
2023-05-14T04:49:54.566Z,4.55
2023-05-14T04:52:41.644Z,4.55
2023-05-14T04:55:28.593Z,4.45
2023-05-14T04:58:15.439Z,4.25
2023-05-14T05:01:05.018Z,4.55
2023-05-14T05:03:52.410Z,4.57
2023-05-14T05:06:39.313Z,5.10
2023-05-14T05:09:26.107Z,4.55
2023-05-14T05:12:13.083Z,5.00
2023-05-14T05:14:59.889Z,4.75
2023-05-14T05:17:46.962Z,4.97
2023-05-14T05:20:33.947Z,4.97
2023-05-14T05:23:20.787Z,4.85
2023-05-14T05:26:07.715Z,4.45
2023-05-14T05:28:54.510Z,4.47
2023-05-14T05:31:41.922Z,4.68
2023-05-14T05:34:28.850Z,4.68
2023-05-14T05:37:15.671Z,4.43
2023-05-14T05:40:02.563Z,4.68
2023-05-14T05:42:49.426Z,4.30
2023-05-14T05:45:36.251Z,4.40
2023-05-14T05:48:23.045Z,4.20
2023-05-14T05:51:09.843Z,4.90
2023-05-14T05:53:56.667Z,4.60
2023-05-14T05:56:43.566Z,4.50
2023-05-14T05:59:30.654Z,4.00
2023-05-14T06:02:17.598Z,4.10
2023-05-14T06:05:04.879Z,3.88
2023-05-14T06:07:53.429Z,4.53
2023-05-14T06:10:40.319Z,4.53
2023-05-14T06:13:27.174Z,4.15
2023-05-14T06:16:14.055Z,4.47
2023-05-14T06:19:01.428Z,4.80
2023-05-14T06:21:48.596Z,3.97
2023-05-14T06:24:35.463Z,4.13
2023-05-14T06:27:22.371Z,4.45
2023-05-14T06:30:11.133Z,4.05
2023-05-14T06:32:58.021Z,4.18
2023-05-14T06:35:45.952Z,4.32
2023-05-14T06:38:32.818Z,4.05
2023-05-14T06:41:19.623Z,4.20
2023-05-14T06:44:06.523Z,3.85
2023-05-14T06:46:53.321Z,4.60
2023-05-14T06:49:40.243Z,4.50
2023-05-14T06:52:27.048Z,4.25
2023-05-14T06:55:13.901Z,4.15
2023-05-14T06:58:00.695Z,3.83
2023-05-14T07:00:48.170Z,4.03
2023-05-14T07:03:35.033Z,4.10
2023-05-14T07:06:22.482Z,4.00
2023-05-14T07:09:10.639Z,4.05
2023-05-14T07:11:57.412Z,4.18
2023-05-14T07:14:44.241Z,3.97
2023-05-14T07:17:31.151Z,3.95
2023-05-14T07:20:17.992Z,4.10
2023-05-14T07:23:04.789Z,4.10
2023-05-14T07:25:51.583Z,3.75
2023-05-14T07:28:38.385Z,3.90
2023-05-14T07:31:25.364Z,4.10
2023-05-14T07:34:12.773Z,3.60
2023-05-14T07:36:59.858Z,3.88
2023-05-14T07:39:46.798Z,3.63
2023-05-14T07:42:37.075Z,3.63
2023-05-14T07:45:24.376Z,3.53
2023-05-14T07:48:13.575Z,3.88
2023-05-14T07:51:03.424Z,3.30
2023-05-14T07:53:50.186Z,3.28
2023-05-14T07:56:37.077Z,3.35
2023-05-14T07:59:26.910Z,3.63
2023-05-14T08:02:15.879Z,3.80
2023-05-14T08:05:02.933Z,3.70
2023-05-14T08:07:49.944Z,3.50
2023-05-14T08:10:36.926Z,3.05
2023-05-14T08:13:23.783Z,3.40
2023-05-14T08:16:10.650Z,3.25
2023-05-14T08:18:57.503Z,2.95
2023-05-14T08:21:44.561Z,3.20
2023-05-14T08:24:31.699Z,3.03
2023-05-14T08:27:18.554Z,2.78
2023-05-14T08:30:06.797Z,2.78
2023-05-14T08:32:53.799Z,2.63
2023-05-14T08:35:40.692Z,2.72
2023-05-14T08:38:27.540Z,2.53
2023-05-14T08:41:16.254Z,2.53
2023-05-14T08:44:07.347Z,2.25
2023-05-14T08:46:54.713Z,2.88
2023-05-14T08:49:42.884Z,2.60
2023-05-14T08:52:30.446Z,2.30
2023-05-14T08:55:17.249Z,2.10
2023-05-14T08:58:04.248Z,2.50
2023-05-14T09:00:51.117Z,2.28
2023-05-14T09:03:38.212Z,2.35
2023-05-14T09:06:25.667Z,2.22
2023-05-14T09:09:13.073Z,2.10
2023-05-14T09:12:01.247Z,2.30
2023-05-14T09:14:49.176Z,2.17
2023-05-14T09:17:36.146Z,2.47
2023-05-14T09:20:23.597Z,2.20
2023-05-14T09:23:10.602Z,2.25
2023-05-14T09:25:57.475Z,2.17
2023-05-14T09:28:44.802Z,2.30
2023-05-14T09:31:33.127Z,2.30
2023-05-14T09:34:30.772Z,2.38
2023-05-14T09:37:17.539Z,2.50
2023-05-14T09:40:09.123Z,2.83
2023-05-14T09:42:56.194Z,2.78
2023-05-14T09:45:43.081Z,2.80
2023-05-14T09:48:30.027Z,2.90
2023-05-14T09:51:21.000Z,2.90
2023-05-14T09:54:08.217Z,3.10
2023-05-14T09:56:55.814Z,2.63
2023-05-14T09:59:42.788Z,2.80
2023-05-14T10:02:38.854Z,2.53
2023-05-14T10:05:26.856Z,2.70
2023-05-14T10:08:18.587Z,2.90
2023-05-14T10:11:11.010Z,2.70
2023-05-14T10:14:00.584Z,2.83
2023-05-14T10:16:50.043Z,3.00
2023-05-14T10:19:37.434Z,2.95
2023-05-14T10:22:27.843Z,3.53
2023-05-14T10:25:14.800Z,3.08
2023-05-14T10:28:02.511Z,3.17
2023-05-14T10:30:50.372Z,3.40
2023-05-14T10:33:50.522Z,3.05
2023-05-14T10:36:38.735Z,3.05
2023-05-14T10:39:40.548Z,2.88
2023-05-14T10:42:35.906Z,2.90
2023-05-14T10:45:22.908Z,2.90
2023-05-14T10:48:09.769Z,2.70
2023-05-14T10:50:57.196Z,2.80
2023-05-14T10:53:44.139Z,2.80
2023-05-14T10:56:30.936Z,2.70
2023-05-14T10:59:17.965Z,2.50
2023-05-14T11:02:34.996Z,2.90
2023-05-14T11:05:21.906Z,2.42
2023-05-14T11:08:08.821Z,2.22
2023-05-14T11:10:56.209Z,2.63
2023-05-14T11:13:43.020Z,2.90
2023-05-14T11:16:30.987Z,2.13
2023-05-14T11:19:21.674Z,2.58
2023-05-14T11:22:08.565Z,2.30
2023-05-14T11:24:55.523Z,2.42
2023-05-14T11:27:44.657Z,2.30
2023-05-14T11:30:31.526Z,2.20
2023-05-14T11:33:18.962Z,2.28
2023-05-14T11:36:06.088Z,2.35
2023-05-14T11:38:52.962Z,2.17
2023-05-14T11:41:45.652Z,2.28
2023-05-14T11:44:32.808Z,2.20
2023-05-14T11:47:21.374Z,2.00
2023-05-14T11:50:09.527Z,2.20
2023-05-14T11:52:57.454Z,2.50
2023-05-14T11:55:46.350Z,2.05
2023-05-14T11:58:33.853Z,2.10
2023-05-14T12:01:20.757Z,2.00
2023-05-14T12:04:07.795Z,2.33
2023-05-14T12:06:54.999Z,2.13
2023-05-14T12:09:48.984Z,2.15
2023-05-14T12:12:39.223Z,2.05
2023-05-14T12:15:26.821Z,2.33
2023-05-14T12:18:22.974Z,2.42
2023-05-14T12:21:12.014Z,2.20
2023-05-14T12:24:02.021Z,2.13
2023-05-14T12:26:50.065Z,2.25
2023-05-14T12:29:38.863Z,2.03
2023-05-14T12:32:26.411Z,2.25
2023-05-14T12:35:13.312Z,2.20
2023-05-14T12:38:00.506Z,2.15
2023-05-14T12:40:47.672Z,2.20
2023-05-14T12:43:34.468Z,2.10
2023-05-14T12:46:21.557Z,2.22
2023-05-14T12:49:08.444Z,2.40
2023-05-14T12:52:07.930Z,2.22
2023-05-14T12:55:02.137Z,2.30
2023-05-14T12:57:49.025Z,2.10
2023-05-14T13:00:35.892Z,2.25
2023-05-14T13:03:22.949Z,2.28
2023-05-14T13:06:09.824Z,2.22
2023-05-14T13:08:56.850Z,2.40
2023-05-14T13:11:43.627Z,2.40
2023-05-14T13:14:30.437Z,2.70
2023-05-14T13:17:17.275Z,2.42
2023-05-14T13:20:04.816Z,2.50
2023-05-14T13:22:51.647Z,2.45
2023-05-14T13:25:38.490Z,2.67
2023-05-14T13:28:25.376Z,2.38
2023-05-14T13:31:14.339Z,2.80
2023-05-14T13:34:02.500Z,2.75
2023-05-14T13:36:49.850Z,2.67
2023-05-14T13:39:36.653Z,2.80
2023-05-14T13:42:23.743Z,3.20
2023-05-14T13:45:11.759Z,2.53
2023-05-14T13:47:58.612Z,2.47
2023-05-14T13:50:45.495Z,2.60
2023-05-14T13:53:32.303Z,2.63
2023-05-14T13:56:19.458Z,2.60
2023-05-14T13:59:06.378Z,3.70
2023-05-14T14:01:53.261Z,4.15
2023-05-14T14:04:40.145Z,4.45
2023-05-14T14:07:27.036Z,4.03
2023-05-14T14:10:14.015Z,4.00
2023-05-14T14:13:00.941Z,4.07
2023-05-14T14:15:47.798Z,3.72
2023-05-14T14:18:34.687Z,4.38
2023-05-14T14:21:21.757Z,3.97
2023-05-14T14:24:08.594Z,3.97
2023-05-14T14:26:55.498Z,4.38
2023-05-14T14:29:42.444Z,3.80
2023-05-14T14:32:29.371Z,4.78
2023-05-14T14:35:19.933Z,4.13
2023-05-14T14:38:06.816Z,3.70
2023-05-14T14:40:54.237Z,3.33
2023-05-14T14:43:41.343Z,3.40
2023-05-14T14:46:28.499Z,3.33
2023-05-14T14:49:15.559Z,3.10
2023-05-14T14:52:02.490Z,3.10
2023-05-14T14:54:49.323Z,3.25
2023-05-14T14:57:36.181Z,3.40
2023-05-14T15:00:23.013Z,3.08
2023-05-14T15:03:13.261Z,3.05
2023-05-14T15:06:00.477Z,3.00
2023-05-14T15:08:47.385Z,3.40
2023-05-14T15:11:37.186Z,3.25
2023-05-14T15:14:24.355Z,3.40
2023-05-14T15:17:11.769Z,3.10
2023-05-14T15:19:59.020Z,2.80
2023-05-14T15:22:46.032Z,2.85
2023-05-14T15:25:32.941Z,2.75
2023-05-14T15:28:19.726Z,2.47
2023-05-14T15:31:06.643Z,2.45
2023-05-14T15:33:56.163Z,2.70
2023-05-14T15:36:43.055Z,2.45
2023-05-14T15:39:31.622Z,2.15
2023-05-14T15:42:19.976Z,2.22
2023-05-14T15:45:07.187Z,2.03
2023-05-14T15:47:54.304Z,2.00
2023-05-14T15:50:41.868Z,2.10
2023-05-14T15:53:28.814Z,1.98
2023-05-14T15:56:16.072Z,2.10
2023-05-14T15:59:03.510Z,1.98
2023-05-14T16:01:51.022Z,1.90
2023-05-14T16:04:38.124Z,1.88
2023-05-14T16:07:24.999Z,1.85
2023-05-14T16:10:11.872Z,1.63
2023-05-14T16:12:58.808Z,1.75
2023-05-14T16:15:46.178Z,1.73
2023-05-14T16:18:34.200Z,1.70
2023-05-14T16:21:21.387Z,1.65
2023-05-14T16:24:08.218Z,1.58
2023-05-14T16:26:55.077Z,1.73
2023-05-14T16:29:42.479Z,1.60
2023-05-14T16:32:29.824Z,1.80
2023-05-14T16:35:19.551Z,1.80
2023-05-14T16:38:06.847Z,1.77
2023-05-14T16:40:54.324Z,1.75
2023-05-14T16:43:41.295Z,1.55
2023-05-14T16:46:29.494Z,1.80
2023-05-14T16:49:16.961Z,1.70
2023-05-14T16:52:04.031Z,1.50
2023-05-14T16:54:50.917Z,1.85
2023-05-14T17:00:11.843Z,1.67
2023-05-14T17:02:58.674Z,1.50
2023-05-14T17:05:45.638Z,1.60
2023-05-14T17:08:33.632Z,1.73
2023-05-14T17:11:21.305Z,1.63
2023-05-14T17:14:08.144Z,1.50
2023-05-14T17:16:55.043Z,1.40
2023-05-14T17:19:42.411Z,1.73
2023-05-14T17:22:29.324Z,1.52
2023-05-14T17:25:16.139Z,1.27
2023-05-14T17:28:03.036Z,1.30
2023-05-14T17:30:51.064Z,1.40
2023-05-14T17:33:37.971Z,1.50
2023-05-14T17:36:25.092Z,1.60
2023-05-14T17:39:11.950Z,1.40
2023-05-14T17:41:58.757Z,1.35
2023-05-14T17:44:45.636Z,1.80
2023-05-14T17:47:32.511Z,1.60
2023-05-14T17:50:20.465Z,1.73
2023-05-14T17:53:07.329Z,1.70
2023-05-14T17:55:54.233Z,2.83
2023-05-14T17:58:41.307Z,4.38
2023-05-14T18:01:28.246Z,6.07
2023-05-14T18:04:15.467Z,7.45
2023-05-14T18:07:03.279Z,8.20
2023-05-14T18:09:50.193Z,9.15
2023-05-14T18:12:37.044Z,8.10
2023-05-14T18:15:25.665Z,8.60
2023-05-14T18:18:13.172Z,7.80
2023-05-14T18:21:00.031Z,7.78
2023-05-14T18:23:46.951Z,7.40
2023-05-14T18:26:34.489Z,6.45
2023-05-14T18:29:21.493Z,6.32
2023-05-14T18:32:09.767Z,6.13
2023-05-14T18:34:56.571Z,5.90
2023-05-14T18:37:43.572Z,5.30
2023-05-14T18:40:30.508Z,6.25
2023-05-14T18:43:18.490Z,5.03
2023-05-14T18:46:05.478Z,5.10
2023-05-14T18:48:52.374Z,4.60
2023-05-14T18:51:39.179Z,4.35
2023-05-14T18:54:26.072Z,4.47
2023-05-14T18:57:13.597Z,4.13
2023-05-14T19:00:01.993Z,3.85
2023-05-14T19:02:49.028Z,3.85
2023-05-14T19:05:35.939Z,3.53
2023-05-14T19:08:22.923Z,3.78
2023-05-14T19:11:09.782Z,3.45
2023-05-14T19:13:56.565Z,3.38
2023-05-14T19:16:43.414Z,3.35
2023-05-14T19:19:30.696Z,3.35
2023-05-14T19:22:17.518Z,3.55
2023-05-14T19:25:05.214Z,3.30
2023-05-14T19:27:55.307Z,3.05
2023-05-14T19:30:42.140Z,3.03
2023-05-14T19:33:29.010Z,2.92
2023-05-14T19:36:15.976Z,2.90
2023-05-14T19:39:03.130Z,3.40
2023-05-14T19:41:49.973Z,3.30
2023-05-14T19:44:36.870Z,3.08
2023-05-14T19:47:23.710Z,2.90
2023-05-14T19:50:11.251Z,2.88
2023-05-14T19:52:58.132Z,2.75
2023-05-14T19:55:45.015Z,2.70
2023-05-14T19:58:31.983Z,2.65
2023-05-14T20:01:19.320Z,2.47
2023-05-14T20:04:07.307Z,2.67
2023-05-14T20:06:57.259Z,2.50
2023-05-14T20:09:44.338Z,2.22
2023-05-14T20:12:31.471Z,2.30
2023-05-14T20:15:18.346Z,2.25
2023-05-14T20:18:05.260Z,2.33
2023-05-14T20:20:52.099Z,2.08
2023-05-14T20:23:38.941Z,2.20
2023-05-14T20:26:25.862Z,2.10
2023-05-14T20:29:14.370Z,2.17
2023-05-14T20:32:01.186Z,1.90
2023-05-14T20:34:47.972Z,2.00
2023-05-14T20:37:34.769Z,2.10
2023-05-14T20:40:21.709Z,1.88
2023-05-14T20:43:08.561Z,1.85
2023-05-14T20:45:57.221Z,1.90
2023-05-14T20:48:44.072Z,1.60
2023-05-14T20:51:30.926Z,1.80
2023-05-14T20:54:17.728Z,1.50
2023-05-14T20:57:04.638Z,1.70
2023-05-14T20:59:51.554Z,1.60
2023-05-14T21:02:38.520Z,1.50
2023-05-14T21:05:25.767Z,1.60
2023-05-14T21:08:12.766Z,1.58
2023-05-14T21:10:59.613Z,1.63
2023-05-14T21:13:46.448Z,1.60
2023-05-14T21:16:33.394Z,1.80
2023-05-14T21:19:20.474Z,1.67
2023-05-14T21:22:07.402Z,1.70
2023-05-14T21:24:55.591Z,1.50
2023-05-14T21:27:45.296Z,1.80
2023-05-14T21:30:32.223Z,1.90
2023-05-14T21:33:19.198Z,1.70
2023-05-14T21:36:07.235Z,1.70
2023-05-14T21:38:54.014Z,1.90
2023-05-14T21:41:41.340Z,1.48
2023-05-14T21:44:28.139Z,1.55
2023-05-14T21:47:16.147Z,1.67
2023-05-14T21:50:03.751Z,1.60
2023-05-14T21:52:50.613Z,1.70
2023-05-14T21:55:37.494Z,1.60
2023-05-14T21:58:24.312Z,1.70
2023-05-14T22:01:11.620Z,1.52
2023-05-14T22:03:58.618Z,1.80
2023-05-14T22:06:45.530Z,1.90
2023-05-14T22:09:32.481Z,1.58
2023-05-14T22:12:19.287Z,1.45
2023-05-14T22:15:06.749Z,1.70
2023-05-14T22:17:53.580Z,1.58
2023-05-14T22:20:40.538Z,1.65
2023-05-14T22:23:57.778Z,1.65
2023-05-14T22:26:44.670Z,1.52
2023-05-14T22:29:31.636Z,1.55
2023-05-14T22:32:18.579Z,1.38
2023-05-14T22:35:05.512Z,1.58
2023-05-14T22:37:52.341Z,1.60
2023-05-14T22:40:39.156Z,1.50
2023-05-14T22:43:25.968Z,1.63
2023-05-14T22:46:12.857Z,1.35
2023-05-14T22:49:00.170Z,1.60
2023-05-14T22:51:47.115Z,1.80
2023-05-14T22:54:33.924Z,1.77
2023-05-14T22:57:20.750Z,1.90
2023-05-14T23:00:08.992Z,1.88
2023-05-14T23:02:55.916Z,1.77
2023-05-14T23:05:42.800Z,2.03
2023-05-14T23:08:29.722Z,2.00
2023-05-14T23:11:16.546Z,1.90
2023-05-14T23:14:03.397Z,1.90
2023-05-14T23:16:50.217Z,2.15
2023-05-14T23:19:37.037Z,1.77
2023-05-14T23:22:23.878Z,1.80
2023-05-14T23:25:10.720Z,1.80
2023-05-14T23:27:57.500Z,1.95
2023-05-14T23:30:45.088Z,1.90
2023-05-14T23:33:31.978Z,1.80
2023-05-14T23:36:18.902Z,1.98
2023-05-14T23:39:05.860Z,2.08
2023-05-14T23:41:52.731Z,2.03
2023-05-14T23:44:39.550Z,1.83
2023-05-14T23:47:26.427Z,1.58
2023-05-14T23:50:13.282Z,1.90
2023-05-14T23:53:00.165Z,1.70
2023-05-14T23:55:47.148Z,1.80
2023-05-14T23:58:34.270Z,1.67
